VIV236 MROC-MMUN
Flight info
| Callsign | VIV236 |
|---|---|
| Flight time | 2h 8m |
| Altitude | 36000 |
| Route | NANJO3U ULAPO UA502 LIBIS DCT IOS DCT VIDNO UA758 MID/N0472F350 UJ16 XUDUN XUDUN1A |
| Aircraft | A320/M-SDE3FGHIRWY/LB1 |
Departure
| Time | 2026-05-08 01:02 |
|---|---|
| Airport | Juan Santamaría International Airport (MROC) |
Arrival
| Time | 2026-05-08 03:10 |
|---|---|
| Airport | Cancún International Airport (MMUN) |
| Time | Latitude | Longitude | Altitude | Speed | Heading |
|---|---|---|---|---|---|
| 2026-05-08 00:34 | 9.99760 | -84.20317 | 3034 ft | 0 kts | 339° |
| 2026-05-08 00:50 | 9.99741 | -84.20309 | 3038 ft | 4 kts | 333° |
| 2026-05-08 00:51 | 9.99720 | -84.20294 | 3035 ft | 4 kts | 302° |
| 2026-05-08 00:51 | 9.99715 | -84.20277 | 3034 ft | 1 kts | 249° |
| 2026-05-08 00:51 | 9.99715 | -84.20276 | 3034 ft | 0 kts | 249° |
| 2026-05-08 00:55 | 9.99704 | -84.20305 | 3033 ft | 9 kts | 249° |
| 2026-05-08 00:56 | 9.99677 | -84.20377 | 3034 ft | 12 kts | 249° |
| 2026-05-08 00:56 | 9.99637 | -84.20486 | 3034 ft | 21 kts | 249° |
| 2026-05-08 00:56 | 9.99576 | -84.20647 | 3037 ft | 28 kts | 249° |
| 2026-05-08 00:56 | 9.99501 | -84.20846 | 3033 ft | 25 kts | 250° |
| 2026-05-08 00:57 | 9.99436 | -84.21024 | 3023 ft | 21 kts | 249° |
| 2026-05-08 00:57 | 9.99369 | -84.21201 | 3004 ft | 31 kts | 249° |
| 2026-05-08 00:57 | 9.99307 | -84.21366 | 2994 ft | 26 kts | 249° |
| 2026-05-08 00:57 | 9.99264 | -84.21481 | 2984 ft | 18 kts | 249° |
| 2026-05-08 00:58 | 9.99211 | -84.21627 | 2974 ft | 27 kts | 250° |
| 2026-05-08 00:58 | 9.99174 | -84.21725 | 2969 ft | 2 kts | 245° |
| 2026-05-08 00:58 | 9.99157 | -84.21764 | 2967 ft | 10 kts | 246° |
| 2026-05-08 00:58 | 9.99123 | -84.21852 | 2963 ft | 17 kts | 249° |
| 2026-05-08 00:59 | 9.99099 | -84.21987 | 2948 ft | 23 kts | 278° |
| 2026-05-08 00:59 | 9.99068 | -84.22153 | 2942 ft | 27 kts | 250° |
| 2026-05-08 00:59 | 9.99014 | -84.22202 | 2948 ft | 0 kts | 167° |
| 2026-05-08 01:00 | 9.99003 | -84.22200 | 2938 ft | 4 kts | 165° |
| 2026-05-08 01:00 | 9.98956 | -84.22183 | 2942 ft | 11 kts | 158° |
| 2026-05-08 01:00 | 9.98935 | -84.22102 | 2938 ft | 15 kts | 72° |
| 2026-05-08 01:01 | 9.99001 | -84.21923 | 2963 ft | 55 kts | 69° |
| 2026-05-08 01:01 | 9.99212 | -84.21365 | 2990 ft | 113 kts | 69° |
| 2026-05-08 01:01 | 9.99543 | -84.20475 | 3038 ft | 156 kts | 69° |
| 2026-05-08 01:01 | 9.99981 | -84.19358 | 3412 ft | 170 kts | 66° |
| 2026-05-08 01:02 | 10.00732 | -84.18482 | 3995 ft | 168 kts | 19° |
| 2026-05-08 01:02 | 10.01889 | -84.18517 | 4426 ft | 179 kts | 331° |
| 2026-05-08 01:02 | 10.02913 | -84.19364 | 4651 ft | 202 kts | 319° |
| 2026-05-08 01:02 | 10.04069 | -84.20306 | 4867 ft | 225 kts | 323° |
| 2026-05-08 01:03 | 10.05292 | -84.21373 | 5237 ft | 240 kts | 306° |
| 2026-05-08 01:03 | 10.06033 | -84.22937 | 5739 ft | 253 kts | 291° |
| 2026-05-08 01:03 | 10.06671 | -84.24660 | 6246 ft | 272 kts | 291° |
| 2026-05-08 01:03 | 10.07339 | -84.26505 | 6889 ft | 283 kts | 291° |
| 2026-05-08 01:04 | 10.08023 | -84.28398 | 7657 ft | 289 kts | 291° |
| 2026-05-08 01:04 | 10.08723 | -84.30324 | 8430 ft | 293 kts | 291° |
| 2026-05-08 01:04 | 10.09439 | -84.32285 | 9183 ft | 298 kts | 291° |
| 2026-05-08 01:04 | 10.10250 | -84.34237 | 9877 ft | 303 kts | 300° |
| 2026-05-08 01:05 | 10.11496 | -84.36002 | 10326 ft | 318 kts | 315° |
| 2026-05-08 01:05 | 10.13231 | -84.37504 | 10487 ft | 338 kts | 324° |
| 2026-05-08 01:05 | 10.15159 | -84.39011 | 10614 ft | 360 kts | 324° |
| 2026-05-08 01:05 | 10.17193 | -84.40611 | 10797 ft | 378 kts | 323° |
| 2026-05-08 01:06 | 10.19284 | -84.42269 | 11252 ft | 385 kts | 323° |
| 2026-05-08 01:06 | 10.21401 | -84.43957 | 11813 ft | 389 kts | 323° |
| 2026-05-08 01:06 | 10.23536 | -84.45663 | 12359 ft | 393 kts | 323° |
| 2026-05-08 01:06 | 10.25698 | -84.47390 | 12897 ft | 397 kts | 323° |
| 2026-05-08 01:07 | 10.27880 | -84.49131 | 13420 ft | 401 kts | 323° |
| 2026-05-08 01:07 | 10.30085 | -84.50887 | 13965 ft | 404 kts | 323° |
| 2026-05-08 01:07 | 10.32305 | -84.52654 | 14487 ft | 407 kts | 323° |
| 2026-05-08 01:07 | 10.34546 | -84.54437 | 15018 ft | 411 kts | 323° |
| 2026-05-08 01:08 | 10.36805 | -84.56232 | 15533 ft | 414 kts | 323° |
| 2026-05-08 01:08 | 10.39077 | -84.58044 | 16054 ft | 417 kts | 323° |
| 2026-05-08 01:08 | 10.41370 | -84.59871 | 16549 ft | 421 kts | 323° |
| 2026-05-08 01:08 | 10.43680 | -84.61713 | 17045 ft | 424 kts | 323° |
| 2026-05-08 01:09 | 10.46012 | -84.63571 | 17538 ft | 427 kts | 323° |
| 2026-05-08 01:09 | 10.48355 | -84.65440 | 18041 ft | 430 kts | 323° |
| 2026-05-08 01:09 | 10.50685 | -84.67302 | 18514 ft | 433 kts | 324° |
| 2026-05-08 01:09 | 10.53063 | -84.69201 | 18958 ft | 436 kts | 324° |
| 2026-05-08 01:10 | 10.55457 | -84.71111 | 19411 ft | 440 kts | 324° |
| 2026-05-08 01:10 | 10.57873 | -84.73035 | 19849 ft | 443 kts | 324° |
| 2026-05-08 01:10 | 10.60308 | -84.74973 | 20279 ft | 446 kts | 324° |
| 2026-05-08 01:10 | 10.62752 | -84.76920 | 20695 ft | 448 kts | 324° |
| 2026-05-08 01:11 | 10.65220 | -84.78886 | 21092 ft | 452 kts | 324° |
| 2026-05-08 01:11 | 10.67688 | -84.80878 | 21470 ft | 455 kts | 322° |
| 2026-05-08 01:11 | 10.70004 | -84.83097 | 21830 ft | 459 kts | 319° |
| 2026-05-08 01:11 | 10.72309 | -84.85362 | 22182 ft | 461 kts | 318° |
| 2026-05-08 01:12 | 10.74622 | -84.87638 | 22523 ft | 464 kts | 319° |
| 2026-05-08 01:12 | 10.76950 | -84.89928 | 22850 ft | 466 kts | 319° |
| 2026-05-08 01:12 | 10.79294 | -84.92230 | 23156 ft | 469 kts | 319° |
| 2026-05-08 01:12 | 10.81648 | -84.94540 | 23462 ft | 472 kts | 319° |
| 2026-05-08 01:13 | 10.84015 | -84.96861 | 23758 ft | 474 kts | 319° |
| 2026-05-08 01:13 | 10.86364 | -84.99163 | 24048 ft | 476 kts | 319° |
| 2026-05-08 01:13 | 10.88754 | -85.01504 | 24343 ft | 478 kts | 319° |
| 2026-05-08 01:13 | 10.91153 | -85.03856 | 24640 ft | 480 kts | 319° |
| 2026-05-08 01:14 | 10.93562 | -85.06220 | 24940 ft | 481 kts | 319° |
| 2026-05-08 01:14 | 10.95978 | -85.08589 | 25219 ft | 483 kts | 319° |
| 2026-05-08 01:14 | 10.98403 | -85.10969 | 25486 ft | 485 kts | 319° |
| 2026-05-08 01:14 | 11.00838 | -85.13360 | 25754 ft | 487 kts | 319° |
| 2026-05-08 01:15 | 11.03275 | -85.15758 | 26014 ft | 488 kts | 319° |
| 2026-05-08 01:15 | 11.05721 | -85.18164 | 26276 ft | 490 kts | 319° |
| 2026-05-08 01:15 | 11.08192 | -85.20558 | 26546 ft | 491 kts | 319° |
| 2026-05-08 01:15 | 11.10691 | -85.22940 | 26802 ft | 493 kts | 319° |
| 2026-05-08 01:16 | 11.13209 | -85.25316 | 27055 ft | 494 kts | 320° |
| 2026-05-08 01:16 | 11.15740 | -85.27695 | 27315 ft | 496 kts | 320° |
| 2026-05-08 01:16 | 11.18276 | -85.30082 | 27624 ft | 497 kts | 319° |
| 2026-05-08 01:16 | 11.20806 | -85.32476 | 28015 ft | 496 kts | 319° |
| 2026-05-08 01:17 | 11.23325 | -85.34877 | 28401 ft | 495 kts | 319° |
| 2026-05-08 01:17 | 11.25835 | -85.37274 | 28803 ft | 494 kts | 319° |
| 2026-05-08 01:17 | 11.28337 | -85.39663 | 29208 ft | 493 kts | 319° |
| 2026-05-08 01:17 | 11.30839 | -85.42051 | 29613 ft | 492 kts | 319° |
| 2026-05-08 01:18 | 11.33330 | -85.44429 | 30037 ft | 490 kts | 319° |
| 2026-05-08 01:18 | 11.35819 | -85.46802 | 30441 ft | 490 kts | 319° |
| 2026-05-08 01:18 | 11.38309 | -85.49173 | 30849 ft | 487 kts | 319° |
| 2026-05-08 01:18 | 11.40791 | -85.51515 | 31199 ft | 487 kts | 320° |
| 2026-05-08 01:19 | 11.43277 | -85.53790 | 31554 ft | 486 kts | 320° |
| 2026-05-08 01:19 | 11.45819 | -85.56062 | 31948 ft | 485 kts | 321° |
| 2026-05-08 01:19 | 11.48371 | -85.58315 | 32337 ft | 485 kts | 321° |
| 2026-05-08 01:19 | 11.50919 | -85.60563 | 32730 ft | 484 kts | 321° |
| 2026-05-08 01:20 | 11.53463 | -85.62817 | 33166 ft | 484 kts | 320° |
| 2026-05-08 01:20 | 11.55991 | -85.65073 | 33593 ft | 483 kts | 320° |
| 2026-05-08 01:20 | 11.58508 | -85.67336 | 33995 ft | 482 kts | 320° |
| 2026-05-08 01:20 | 11.61016 | -85.69600 | 34393 ft | 481 kts | 320° |
| 2026-05-08 01:21 | 11.63511 | -85.71859 | 34815 ft | 479 kts | 320° |
| 2026-05-08 01:21 | 11.65998 | -85.74111 | 35287 ft | 476 kts | 320° |
| 2026-05-08 01:21 | 11.68470 | -85.76343 | 35680 ft | 474 kts | 320° |
| 2026-05-08 01:21 | 11.70930 | -85.78560 | 35798 ft | 472 kts | 320° |
| 2026-05-08 01:22 | 11.73393 | -85.80776 | 35818 ft | 472 kts | 320° |
| 2026-05-08 01:22 | 11.78321 | -85.85204 | 35809 ft | 471 kts | 320° |
| 2026-05-08 01:23 | 11.83240 | -85.89638 | 35806 ft | 472 kts | 320° |
| 2026-05-08 01:23 | 11.88163 | -85.94085 | 35804 ft | 472 kts | 319° |
| 2026-05-08 01:24 | 11.93077 | -85.98535 | 35842 ft | 472 kts | 320° |
| 2026-05-08 01:24 | 11.97973 | -86.02958 | 35866 ft | 473 kts | 319° |
| 2026-05-08 01:25 | 12.02899 | -86.07404 | 35885 ft | 472 kts | 319° |
| 2026-05-08 01:25 | 12.07820 | -86.11858 | 35884 ft | 472 kts | 319° |
| 2026-05-08 01:26 | 12.12742 | -86.16307 | 35884 ft | 472 kts | 319° |
| 2026-05-08 01:26 | 12.17949 | -86.20353 | 35884 ft | 471 kts | 325° |
| 2026-05-08 01:27 | 12.23276 | -86.24270 | 35885 ft | 472 kts | 325° |
| 2026-05-08 01:27 | 12.28590 | -86.28189 | 35888 ft | 471 kts | 325° |
| 2026-05-08 01:28 | 12.33908 | -86.32110 | 35887 ft | 471 kts | 325° |
| 2026-05-08 01:28 | 12.39184 | -86.36005 | 35885 ft | 471 kts | 325° |
| 2026-05-08 01:29 | 12.44491 | -86.39933 | 35887 ft | 471 kts | 325° |
| 2026-05-08 01:29 | 12.49798 | -86.43848 | 35885 ft | 470 kts | 325° |
| 2026-05-08 01:30 | 12.55101 | -86.47764 | 35884 ft | 470 kts | 325° |
| 2026-05-08 01:30 | 12.60408 | -86.51689 | 35888 ft | 471 kts | 325° |
| 2026-05-08 01:31 | 12.65715 | -86.55621 | 35892 ft | 470 kts | 325° |
| 2026-05-08 01:31 | 12.71013 | -86.59544 | 35893 ft | 470 kts | 325° |
| 2026-05-08 01:32 | 12.76310 | -86.63459 | 35890 ft | 470 kts | 325° |
| 2026-05-08 01:32 | 12.81604 | -86.67378 | 35896 ft | 470 kts | 325° |
| 2026-05-08 01:33 | 12.86898 | -86.71306 | 35899 ft | 469 kts | 325° |
| 2026-05-08 01:33 | 12.91292 | -86.74567 | 35897 ft | 469 kts | 324° |
| 2026-05-08 01:34 | 12.96573 | -86.78505 | 35900 ft | 469 kts | 324° |
| 2026-05-08 01:34 | 13.02701 | -86.83107 | 35900 ft | 469 kts | 324° |
| 2026-05-08 01:35 | 13.07107 | -86.86438 | 35899 ft | 469 kts | 324° |
| 2026-05-08 01:35 | 13.12360 | -86.90409 | 35900 ft | 469 kts | 324° |
| 2026-05-08 01:36 | 13.17604 | -86.94341 | 35904 ft | 469 kts | 324° |
| 2026-05-08 01:36 | 13.22904 | -86.98243 | 35907 ft | 469 kts | 325° |
| 2026-05-08 01:37 | 13.28216 | -87.02142 | 35908 ft | 469 kts | 325° |
| 2026-05-08 01:37 | 13.33515 | -87.06051 | 35908 ft | 469 kts | 324° |
| 2026-05-08 01:38 | 13.38816 | -87.09978 | 35912 ft | 469 kts | 324° |
| 2026-05-08 01:38 | 13.44108 | -87.13902 | 35911 ft | 469 kts | 324° |
| 2026-05-08 01:39 | 13.49397 | -87.17820 | 35911 ft | 469 kts | 324° |
| 2026-05-08 01:39 | 13.54700 | -87.21746 | 35913 ft | 469 kts | 324° |
| 2026-05-08 01:40 | 13.59950 | -87.25636 | 35924 ft | 468 kts | 324° |
| 2026-05-08 01:40 | 13.65392 | -87.29394 | 35936 ft | 468 kts | 329° |
| 2026-05-08 01:41 | 13.70968 | -87.32743 | 35949 ft | 467 kts | 331° |
| 2026-05-08 01:41 | 13.76611 | -87.36062 | 35985 ft | 467 kts | 330° |
| 2026-05-08 01:42 | 13.82194 | -87.39466 | 36006 ft | 468 kts | 329° |
| 2026-05-08 01:42 | 13.87761 | -87.42931 | 36020 ft | 468 kts | 329° |
| 2026-05-08 01:43 | 13.93335 | -87.46398 | 36033 ft | 468 kts | 329° |
| 2026-05-08 01:43 | 13.98917 | -87.49847 | 36057 ft | 468 kts | 329° |
| 2026-05-08 01:44 | 14.04498 | -87.53299 | 36056 ft | 468 kts | 329° |
| 2026-05-08 01:44 | 14.10073 | -87.56746 | 36044 ft | 467 kts | 329° |
| 2026-05-08 01:45 | 14.15640 | -87.60184 | 36049 ft | 467 kts | 329° |
| 2026-05-08 01:45 | 14.21212 | -87.63629 | 36033 ft | 467 kts | 329° |
| 2026-05-08 01:46 | 14.26784 | -87.67083 | 36026 ft | 467 kts | 329° |
| 2026-05-08 01:46 | 14.32354 | -87.70542 | 36023 ft | 467 kts | 329° |
| 2026-05-08 01:47 | 14.37928 | -87.74006 | 36025 ft | 468 kts | 329° |
| 2026-05-08 01:47 | 14.43464 | -87.77443 | 36019 ft | 468 kts | 329° |
| 2026-05-08 01:48 | 14.51825 | -87.82635 | 36012 ft | 467 kts | 329° |
| 2026-05-08 01:48 | 14.57394 | -87.86101 | 36005 ft | 467 kts | 329° |
| 2026-05-08 01:49 | 14.62956 | -87.89560 | 35996 ft | 467 kts | 329° |
| 2026-05-08 01:49 | 14.68526 | -87.93022 | 35994 ft | 467 kts | 329° |
| 2026-05-08 01:50 | 14.74091 | -87.96490 | 35986 ft | 467 kts | 329° |
| 2026-05-08 01:50 | 14.79652 | -87.99954 | 35984 ft | 467 kts | 329° |
| 2026-05-08 01:51 | 14.85218 | -88.03421 | 35980 ft | 467 kts | 329° |
| 2026-05-08 01:51 | 14.90785 | -88.06889 | 35967 ft | 467 kts | 329° |
| 2026-05-08 01:52 | 14.96343 | -88.10366 | 35960 ft | 467 kts | 329° |
| 2026-05-08 01:52 | 15.01888 | -88.13841 | 35950 ft | 467 kts | 329° |
| 2026-05-08 01:53 | 15.07455 | -88.17311 | 35943 ft | 467 kts | 329° |
| 2026-05-08 01:53 | 15.13020 | -88.20777 | 35939 ft | 466 kts | 329° |
| 2026-05-08 01:54 | 15.18581 | -88.24256 | 35933 ft | 467 kts | 329° |
| 2026-05-08 01:54 | 15.24136 | -88.27741 | 35925 ft | 467 kts | 328° |
| 2026-05-08 01:55 | 15.29689 | -88.31231 | 35919 ft | 467 kts | 329° |
| 2026-05-08 01:55 | 15.35252 | -88.34719 | 35914 ft | 467 kts | 329° |
| 2026-05-08 01:56 | 15.40780 | -88.38185 | 35905 ft | 467 kts | 329° |
| 2026-05-08 01:56 | 15.46333 | -88.41671 | 35901 ft | 467 kts | 328° |
| 2026-05-08 01:57 | 15.51895 | -88.45163 | 35890 ft | 467 kts | 328° |
| 2026-05-08 01:57 | 15.57452 | -88.48660 | 35877 ft | 467 kts | 328° |
| 2026-05-08 01:58 | 15.63013 | -88.52159 | 35860 ft | 467 kts | 328° |
| 2026-05-08 01:58 | 15.68576 | -88.55659 | 35869 ft | 468 kts | 328° |
| 2026-05-08 01:59 | 15.74189 | -88.59031 | 35858 ft | 468 kts | 335° |
| 2026-05-08 01:59 | 15.80260 | -88.61482 | 35861 ft | 468 kts | 339° |
| 2026-05-08 02:00 | 15.86352 | -88.63879 | 35859 ft | 468 kts | 339° |
| 2026-05-08 02:00 | 15.92439 | -88.66275 | 35859 ft | 468 kts | 339° |
| 2026-05-08 02:01 | 15.98525 | -88.68676 | 35858 ft | 467 kts | 339° |
| 2026-05-08 02:01 | 16.04598 | -88.71081 | 35866 ft | 467 kts | 339° |
| 2026-05-08 02:02 | 16.10629 | -88.73479 | 35874 ft | 467 kts | 339° |
| 2026-05-08 02:02 | 16.16698 | -88.75889 | 35881 ft | 467 kts | 339° |
| 2026-05-08 02:03 | 16.22809 | -88.78310 | 35884 ft | 467 kts | 339° |
| 2026-05-08 02:03 | 16.28888 | -88.80713 | 35882 ft | 467 kts | 339° |
| 2026-05-08 02:04 | 16.34920 | -88.83103 | 35882 ft | 467 kts | 339° |
| 2026-05-08 02:04 | 16.40996 | -88.85514 | 35886 ft | 467 kts | 339° |
| 2026-05-08 02:05 | 16.47069 | -88.87929 | 35893 ft | 467 kts | 339° |
| 2026-05-08 02:05 | 16.53139 | -88.90348 | 35900 ft | 467 kts | 339° |
| 2026-05-08 02:06 | 16.59212 | -88.92764 | 35905 ft | 467 kts | 339° |
| 2026-05-08 02:06 | 16.65284 | -88.95184 | 35910 ft | 467 kts | 339° |
| 2026-05-08 02:07 | 16.71353 | -88.97609 | 35913 ft | 467 kts | 339° |
| 2026-05-08 02:07 | 16.77429 | -89.00030 | 35916 ft | 467 kts | 339° |
| 2026-05-08 02:08 | 16.83500 | -89.02449 | 35919 ft | 467 kts | 339° |
| 2026-05-08 02:08 | 16.89565 | -89.04868 | 35918 ft | 467 kts | 339° |
| 2026-05-08 02:09 | 16.95593 | -89.07278 | 35919 ft | 467 kts | 339° |
| 2026-05-08 02:09 | 17.01681 | -89.09709 | 35913 ft | 466 kts | 339° |
| 2026-05-08 02:10 | 17.07739 | -89.12136 | 35909 ft | 466 kts | 338° |
| 2026-05-08 02:10 | 17.13792 | -89.14563 | 35905 ft | 466 kts | 338° |
| 2026-05-08 02:11 | 17.19812 | -89.16972 | 35900 ft | 466 kts | 338° |
| 2026-05-08 02:11 | 17.25865 | -89.19403 | 35899 ft | 466 kts | 338° |
| 2026-05-08 02:12 | 17.31927 | -89.21836 | 35903 ft | 466 kts | 338° |
| 2026-05-08 02:12 | 17.37995 | -89.24264 | 35907 ft | 467 kts | 338° |
| 2026-05-08 02:13 | 17.44058 | -89.26698 | 35910 ft | 467 kts | 338° |
| 2026-05-08 02:13 | 17.50124 | -89.29146 | 35910 ft | 467 kts | 338° |
| 2026-05-08 02:14 | 17.56188 | -89.31593 | 35916 ft | 467 kts | 338° |
| 2026-05-08 02:14 | 17.62254 | -89.34034 | 35923 ft | 467 kts | 338° |
| 2026-05-08 02:15 | 17.68314 | -89.36474 | 35926 ft | 466 kts | 338° |
| 2026-05-08 02:15 | 17.74371 | -89.38910 | 35926 ft | 466 kts | 338° |
| 2026-05-08 02:16 | 17.80453 | -89.41282 | 35923 ft | 466 kts | 343° |
| 2026-05-08 02:16 | 17.86873 | -89.42251 | 35922 ft | 467 kts | 355° |
| 2026-05-08 02:17 | 17.93366 | -89.42725 | 35922 ft | 468 kts | 355° |
| 2026-05-08 02:17 | 17.99821 | -89.43212 | 35925 ft | 468 kts | 355° |
| 2026-05-08 02:18 | 18.06313 | -89.43710 | 35926 ft | 468 kts | 355° |
| 2026-05-08 02:18 | 18.12814 | -89.44197 | 35923 ft | 468 kts | 355° |
| 2026-05-08 02:19 | 18.19310 | -89.44680 | 35923 ft | 468 kts | 355° |
| 2026-05-08 02:19 | 18.25808 | -89.45167 | 35926 ft | 468 kts | 355° |
| 2026-05-08 02:20 | 18.32308 | -89.45648 | 35925 ft | 468 kts | 355° |
| 2026-05-08 02:20 | 18.38813 | -89.46145 | 35927 ft | 469 kts | 355° |
| 2026-05-08 02:21 | 18.45326 | -89.46636 | 35929 ft | 468 kts | 355° |
| 2026-05-08 02:21 | 18.50728 | -89.47040 | 35933 ft | 469 kts | 355° |
| 2026-05-08 02:22 | 18.57236 | -89.47525 | 35929 ft | 468 kts | 355° |
| 2026-05-08 02:22 | 18.63734 | -89.48010 | 35927 ft | 468 kts | 355° |
| 2026-05-08 02:23 | 18.70232 | -89.48500 | 35928 ft | 468 kts | 355° |
| 2026-05-08 02:23 | 18.76731 | -89.48993 | 35922 ft | 468 kts | 355° |
| 2026-05-08 02:24 | 18.83224 | -89.49489 | 35920 ft | 468 kts | 355° |
| 2026-05-08 02:24 | 18.89724 | -89.49980 | 35921 ft | 468 kts | 355° |
| 2026-05-08 02:25 | 18.96222 | -89.50471 | 35921 ft | 468 kts | 355° |
| 2026-05-08 02:25 | 19.02679 | -89.50961 | 35920 ft | 469 kts | 355° |
| 2026-05-08 02:26 | 19.09230 | -89.51452 | 35922 ft | 469 kts | 355° |
| 2026-05-08 02:26 | 19.15690 | -89.51943 | 35921 ft | 468 kts | 355° |
| 2026-05-08 02:27 | 19.22193 | -89.52435 | 35916 ft | 468 kts | 354° |
| 2026-05-08 02:27 | 19.28700 | -89.52927 | 35914 ft | 469 kts | 354° |
| 2026-05-08 02:28 | 19.35204 | -89.53425 | 35911 ft | 469 kts | 354° |
| 2026-05-08 02:28 | 19.41713 | -89.53927 | 35908 ft | 469 kts | 354° |
| 2026-05-08 02:29 | 19.48218 | -89.54424 | 35907 ft | 469 kts | 354° |
| 2026-05-08 02:29 | 19.54726 | -89.54924 | 35903 ft | 469 kts | 354° |
| 2026-05-08 02:30 | 19.61232 | -89.55424 | 35901 ft | 469 kts | 354° |
| 2026-05-08 02:30 | 19.67737 | -89.55922 | 35901 ft | 469 kts | 354° |
| 2026-05-08 02:31 | 19.74251 | -89.56418 | 35902 ft | 469 kts | 354° |
| 2026-05-08 02:31 | 19.80766 | -89.56917 | 35903 ft | 469 kts | 354° |
| 2026-05-08 02:32 | 19.87240 | -89.57414 | 35904 ft | 470 kts | 354° |
| 2026-05-08 02:32 | 19.93765 | -89.57914 | 35907 ft | 469 kts | 354° |
| 2026-05-08 02:33 | 20.00281 | -89.58412 | 35905 ft | 469 kts | 354° |
| 2026-05-08 02:33 | 20.06797 | -89.58913 | 35901 ft | 469 kts | 354° |
| 2026-05-08 02:34 | 20.13313 | -89.59406 | 35902 ft | 469 kts | 354° |
| 2026-05-08 02:34 | 20.19825 | -89.59902 | 35903 ft | 469 kts | 354° |
| 2026-05-08 02:35 | 20.26345 | -89.60401 | 35905 ft | 470 kts | 354° |
| 2026-05-08 02:35 | 20.32860 | -89.60903 | 35907 ft | 470 kts | 354° |
| 2026-05-08 02:36 | 20.39384 | -89.61402 | 35908 ft | 469 kts | 354° |
| 2026-05-08 02:36 | 20.45904 | -89.61899 | 35911 ft | 469 kts | 354° |
| 2026-05-08 02:37 | 20.52418 | -89.62397 | 35912 ft | 469 kts | 354° |
| 2026-05-08 02:37 | 20.58937 | -89.62904 | 35911 ft | 469 kts | 354° |
| 2026-05-08 02:38 | 20.65443 | -89.63415 | 35910 ft | 469 kts | 354° |
| 2026-05-08 02:38 | 20.71951 | -89.63928 | 35908 ft | 468 kts | 354° |
| 2026-05-08 02:39 | 20.78412 | -89.64428 | 35908 ft | 468 kts | 354° |
| 2026-05-08 02:39 | 20.84912 | -89.64903 | 35906 ft | 469 kts | 358° |
| 2026-05-08 02:40 | 20.88144 | -89.64463 | 35904 ft | 472 kts | 15° |
| 2026-05-08 02:40 | 20.91175 | -89.63092 | 35902 ft | 474 kts | 30° |
| 2026-05-08 02:40 | 20.93817 | -89.60996 | 35896 ft | 476 kts | 43° |
| 2026-05-08 02:40 | 20.95974 | -89.58308 | 35890 ft | 478 kts | 56° |
| 2026-05-08 02:41 | 20.97508 | -89.55151 | 35884 ft | 479 kts | 68° |
| 2026-05-08 02:41 | 20.98705 | -89.51826 | 35880 ft | 480 kts | 69° |
| 2026-05-08 02:41 | 21.01056 | -89.45176 | 35883 ft | 482 kts | 69° |
| 2026-05-08 02:42 | 21.03414 | -89.38450 | 35887 ft | 482 kts | 69° |
| 2026-05-08 02:42 | 21.05773 | -89.31723 | 35893 ft | 483 kts | 69° |
| 2026-05-08 02:43 | 21.08135 | -89.24996 | 35897 ft | 483 kts | 69° |
| 2026-05-08 02:43 | 21.10497 | -89.18266 | 35898 ft | 483 kts | 69° |
| 2026-05-08 02:44 | 21.12856 | -89.11529 | 35902 ft | 483 kts | 69° |
| 2026-05-08 02:44 | 21.15220 | -89.04786 | 35906 ft | 483 kts | 69° |
| 2026-05-08 02:45 | 21.17574 | -88.98046 | 35747 ft | 484 kts | 69° |
| 2026-05-08 02:45 | 21.18752 | -88.94665 | 35497 ft | 483 kts | 69° |
| 2026-05-08 02:45 | 21.19927 | -88.91291 | 35185 ft | 484 kts | 69° |
| 2026-05-08 02:46 | 21.21082 | -88.87982 | 34259 ft | 489 kts | 69° |
| 2026-05-08 02:46 | 21.22265 | -88.84587 | 33332 ft | 493 kts | 69° |
| 2026-05-08 02:46 | 21.23477 | -88.81106 | 32233 ft | 501 kts | 69° |
| 2026-05-08 02:46 | 21.24700 | -88.77596 | 31138 ft | 506 kts | 69° |
| 2026-05-08 02:47 | 21.25935 | -88.74055 | 30347 ft | 506 kts | 70° |
| 2026-05-08 02:47 | 21.27167 | -88.70516 | 29357 ft | 507 kts | 70° |
| 2026-05-08 02:47 | 21.28399 | -88.66967 | 28263 ft | 509 kts | 70° |
| 2026-05-08 02:47 | 21.29636 | -88.63400 | 27134 ft | 511 kts | 70° |
| 2026-05-08 02:48 | 21.30877 | -88.59821 | 25929 ft | 512 kts | 71° |
| 2026-05-08 02:48 | 21.32115 | -88.56241 | 24846 ft | 511 kts | 71° |
| 2026-05-08 02:48 | 21.33316 | -88.52763 | 24577 ft | 492 kts | 72° |
| 2026-05-08 02:48 | 21.34478 | -88.49400 | 24460 ft | 471 kts | 72° |
| 2026-05-08 02:49 | 21.35586 | -88.46171 | 24312 ft | 452 kts | 74° |
| 2026-05-08 02:49 | 21.36271 | -88.42965 | 24144 ft | 432 kts | 86° |
| 2026-05-08 02:49 | 21.36347 | -88.39796 | 23735 ft | 420 kts | 98° |
| 2026-05-08 02:49 | 21.35880 | -88.36761 | 23063 ft | 407 kts | 105° |
| 2026-05-08 02:50 | 21.35261 | -88.33811 | 22096 ft | 402 kts | 105° |
| 2026-05-08 02:50 | 21.34645 | -88.30917 | 21167 ft | 395 kts | 105° |
| 2026-05-08 02:50 | 21.34036 | -88.28072 | 20253 ft | 390 kts | 105° |
| 2026-05-08 02:50 | 21.33430 | -88.25242 | 19735 ft | 386 kts | 104° |
| 2026-05-08 02:51 | 21.32834 | -88.22452 | 19264 ft | 381 kts | 104° |
| 2026-05-08 02:51 | 21.32247 | -88.19694 | 18747 ft | 377 kts | 104° |
| 2026-05-08 02:51 | 21.31666 | -88.16962 | 18221 ft | 374 kts | 104° |
| 2026-05-08 02:51 | 21.31092 | -88.14261 | 17704 ft | 370 kts | 103° |
| 2026-05-08 02:52 | 21.30525 | -88.11593 | 17087 ft | 362 kts | 103° |
| 2026-05-08 02:52 | 21.29971 | -88.08976 | 16129 ft | 357 kts | 103° |
| 2026-05-08 02:52 | 21.29434 | -88.06443 | 15586 ft | 351 kts | 103° |
| 2026-05-08 02:52 | 21.28884 | -88.03902 | 15067 ft | 349 kts | 103° |
| 2026-05-08 02:53 | 21.28326 | -88.01369 | 14559 ft | 348 kts | 103° |
| 2026-05-08 02:53 | 21.27768 | -87.98853 | 14041 ft | 345 kts | 103° |
| 2026-05-08 02:53 | 21.27216 | -87.96363 | 13531 ft | 342 kts | 103° |
| 2026-05-08 02:53 | 21.26667 | -87.93886 | 13014 ft | 339 kts | 103° |
| 2026-05-08 02:54 | 21.26129 | -87.91430 | 12517 ft | 337 kts | 103° |
| 2026-05-08 02:54 | 21.25596 | -87.88995 | 12019 ft | 334 kts | 103° |
| 2026-05-08 02:54 | 21.25065 | -87.86579 | 11521 ft | 332 kts | 103° |
| 2026-05-08 02:54 | 21.24535 | -87.84177 | 11037 ft | 330 kts | 103° |
| 2026-05-08 02:55 | 21.24007 | -87.81789 | 10548 ft | 328 kts | 103° |
| 2026-05-08 02:55 | 21.22998 | -87.77231 | 9806 ft | 297 kts | 103° |
| 2026-05-08 02:55 | 21.22531 | -87.75118 | 9684 ft | 291 kts | 104° |
| 2026-05-08 02:56 | 21.22082 | -87.73005 | 9555 ft | 291 kts | 99° |
| 2026-05-08 02:56 | 21.21978 | -87.70840 | 9431 ft | 292 kts | 90° |
| 2026-05-08 02:56 | 21.22009 | -87.68662 | 9077 ft | 291 kts | 90° |
| 2026-05-08 02:56 | 21.22039 | -87.66495 | 8651 ft | 289 kts | 90° |
| 2026-05-08 02:57 | 21.22070 | -87.64350 | 8211 ft | 287 kts | 91° |
| 2026-05-08 02:57 | 21.22097 | -87.62224 | 7771 ft | 284 kts | 91° |
| 2026-05-08 02:57 | 21.22122 | -87.60118 | 7340 ft | 281 kts | 91° |
| 2026-05-08 02:57 | 21.22147 | -87.58059 | 6914 ft | 279 kts | 91° |
| 2026-05-08 02:58 | 21.22175 | -87.55995 | 6488 ft | 276 kts | 91° |
| 2026-05-08 02:58 | 21.22201 | -87.53945 | 6064 ft | 274 kts | 92° |
| 2026-05-08 02:58 | 21.22221 | -87.51914 | 5643 ft | 271 kts | 92° |
| 2026-05-08 02:58 | 21.22243 | -87.49906 | 5229 ft | 268 kts | 92° |
| 2026-05-08 02:59 | 21.22264 | -87.47925 | 4822 ft | 266 kts | 92° |
| 2026-05-08 02:59 | 21.22287 | -87.45961 | 4420 ft | 264 kts | 92° |
| 2026-05-08 02:59 | 21.22314 | -87.43990 | 4034 ft | 264 kts | 92° |
| 2026-05-08 02:59 | 21.22337 | -87.42042 | 3764 ft | 260 kts | 92° |
| 2026-05-08 03:00 | 21.22358 | -87.40111 | 3508 ft | 256 kts | 92° |
| 2026-05-08 03:00 | 21.22380 | -87.38249 | 3384 ft | 245 kts | 92° |
| 2026-05-08 03:00 | 21.22402 | -87.36462 | 3256 ft | 235 kts | 92° |
| 2026-05-08 03:00 | 21.22422 | -87.34747 | 3138 ft | 225 kts | 94° |
| 2026-05-08 03:01 | 21.22375 | -87.33100 | 3040 ft | 217 kts | 97° |
| 2026-05-08 03:01 | 21.22274 | -87.31495 | 3032 ft | 216 kts | 98° |
| 2026-05-08 03:01 | 21.22158 | -87.29881 | 3032 ft | 217 kts | 97° |
| 2026-05-08 03:01 | 21.22044 | -87.28275 | 3033 ft | 217 kts | 97° |
| 2026-05-08 03:02 | 21.21932 | -87.26657 | 3033 ft | 217 kts | 97° |
| 2026-05-08 03:02 | 21.21827 | -87.25054 | 3031 ft | 215 kts | 97° |
| 2026-05-08 03:02 | 21.21870 | -87.23432 | 3029 ft | 219 kts | 90° |
| 2026-05-08 03:02 | 21.21956 | -87.21808 | 3031 ft | 218 kts | 91° |
| 2026-05-08 03:03 | 21.22038 | -87.20201 | 3036 ft | 218 kts | 90° |
| 2026-05-08 03:03 | 21.22123 | -87.18571 | 3033 ft | 219 kts | 90° |
| 2026-05-08 03:03 | 21.22206 | -87.16939 | 3031 ft | 220 kts | 91° |
| 2026-05-08 03:03 | 21.22122 | -87.15324 | 3033 ft | 214 kts | 107° |
| 2026-05-08 03:04 | 21.21545 | -87.13876 | 3031 ft | 211 kts | 124° |
| 2026-05-08 03:04 | 21.20715 | -87.12557 | 3037 ft | 222 kts | 125° |
| 2026-05-08 03:04 | 21.19805 | -87.11103 | 3037 ft | 241 kts | 124° |
| 2026-05-08 03:04 | 21.18868 | -87.09598 | 3034 ft | 244 kts | 124° |
| 2026-05-08 03:05 | 21.17926 | -87.08085 | 3031 ft | 244 kts | 124° |
| 2026-05-08 03:05 | 21.16984 | -87.06574 | 3029 ft | 243 kts | 124° |
| 2026-05-08 03:05 | 21.16070 | -87.05107 | 3031 ft | 229 kts | 124° |
| 2026-05-08 03:05 | 21.15223 | -87.03749 | 3030 ft | 214 kts | 124° |
| 2026-05-08 03:06 | 21.14423 | -87.02467 | 3037 ft | 200 kts | 125° |
| 2026-05-08 03:06 | 21.13665 | -87.01253 | 2871 ft | 194 kts | 124° |
| 2026-05-08 03:06 | 21.12941 | -87.00093 | 2667 ft | 179 kts | 124° |
| 2026-05-08 03:06 | 21.12286 | -86.99042 | 2429 ft | 161 kts | 123° |
| 2026-05-08 03:07 | 21.11698 | -86.98100 | 2218 ft | 144 kts | 124° |
| 2026-05-08 03:07 | 21.11153 | -86.97229 | 2034 ft | 138 kts | 126° |
| 2026-05-08 03:07 | 21.10623 | -86.96380 | 1857 ft | 136 kts | 125° |
| 2026-05-08 03:07 | 21.10111 | -86.95561 | 1687 ft | 131 kts | 125° |
| 2026-05-08 03:08 | 21.09606 | -86.94753 | 1513 ft | 130 kts | 125° |
| 2026-05-08 03:08 | 21.09103 | -86.93948 | 1336 ft | 131 kts | 125° |
| 2026-05-08 03:08 | 21.08594 | -86.93133 | 1160 ft | 132 kts | 125° |
| 2026-05-08 03:08 | 21.08255 | -86.92591 | 1047 ft | 132 kts | 126° |
| 2026-05-08 03:09 | 21.07740 | -86.91768 | 872 ft | 132 kts | 125° |
| 2026-05-08 03:09 | 21.07228 | -86.90948 | 690 ft | 132 kts | 125° |
| 2026-05-08 03:09 | 21.06717 | -86.90131 | 520 ft | 132 kts | 125° |
| 2026-05-08 03:09 | 21.06043 | -86.89050 | 288 ft | 132 kts | 124° |
| 2026-05-08 03:10 | 21.05702 | -86.88500 | 154 ft | 132 kts | 126° |
| 2026-05-08 03:10 | 21.05228 | -86.87761 | 35 ft | 137 kts | 123° |
| 2026-05-08 03:10 | 21.04865 | -86.87176 | 32 ft | 55 kts | 124° |
| 2026-05-08 03:10 | 21.04796 | -86.87066 | 31 ft | 3 kts | 123° |
| 2026-05-08 03:11 | 21.04770 | -86.87024 | 31 ft | 13 kts | 123° |
| 2026-05-08 03:11 | 21.04721 | -86.86944 | 31 ft | 16 kts | 123° |
| 2026-05-08 03:11 | 21.04667 | -86.86855 | 32 ft | 18 kts | 123° |
| 2026-05-08 03:11 | 21.04604 | -86.86754 | 32 ft | 20 kts | 123° |
| 2026-05-08 03:12 | 21.04517 | -86.86624 | 32 ft | 22 kts | 125° |
| 2026-05-08 03:12 | 21.04419 | -86.86494 | 31 ft | 19 kts | 154° |
| 2026-05-08 03:12 | 21.04391 | -86.86460 | 30 ft | 7 kts | 135° |
| 2026-05-08 03:12 | 21.04360 | -86.86433 | 30 ft | 9 kts | 143° |
| 2026-05-08 03:13 | 21.04327 | -86.86405 | 29 ft | 10 kts | 127° |
| 2026-05-08 03:13 | 21.04310 | -86.86403 | 31 ft | 1 kts | 176° |
| 2026-05-08 03:13 | 21.04303 | -86.86399 | 31 ft | 2 kts | 156° |
| 2026-05-08 03:13 | 21.04274 | -86.86382 | 33 ft | 7 kts | 151° |
| 2026-05-08 03:14 | 21.04216 | -86.86348 | 37 ft | 12 kts | 151° |
| 2026-05-08 03:14 | 21.04131 | -86.86296 | 43 ft | 16 kts | 146° |
| 2026-05-08 03:14 | 21.04023 | -86.86235 | 45 ft | 21 kts | 192° |
| 2026-05-08 03:14 | 21.03893 | -86.86324 | 51 ft | 25 kts | 212° |
| 2026-05-08 03:15 | 21.03718 | -86.86442 | 38 ft | 33 kts | 212° |
| 2026-05-08 03:15 | 21.03542 | -86.86586 | 29 ft | 14 kts | 253° |
| 2026-05-08 03:15 | 21.03582 | -86.86645 | 29 ft | 13 kts | 331° |
| 2026-05-08 03:15 | 21.03658 | -86.86696 | 29 ft | 6 kts | 306° |
| 2026-05-08 03:16 | 21.03674 | -86.86719 | 29 ft | 0 kts | 305° |